createdAt,value
2023-04-12T00:00:55.931Z,1402.00
2023-04-12T00:01:56.006Z,1424.00
2023-04-12T00:02:56.026Z,1398.00
2023-04-12T00:03:56.253Z,1416.00
2023-04-12T00:04:56.051Z,1441.00
2023-04-12T00:05:55.897Z,1412.00
2023-04-12T00:06:55.896Z,1415.00
2023-04-12T00:07:55.930Z,1405.00
2023-04-12T00:08:55.910Z,1420.00
2023-04-12T00:09:55.945Z,1409.00
2023-04-12T00:10:55.952Z,1394.00
2023-04-12T00:11:55.957Z,1389.00
2023-04-12T00:12:55.946Z,1415.00
2023-04-12T00:13:56.071Z,1397.00
2023-04-12T00:14:55.945Z,1394.00
2023-04-12T00:15:55.973Z,1416.00
2023-04-12T00:16:56.012Z,1373.00
2023-04-12T00:17:56.029Z,1376.00
2023-04-12T00:18:55.962Z,1393.00
2023-04-12T00:19:55.950Z,1382.00
2023-04-12T00:20:55.964Z,1379.00
2023-04-12T00:21:55.967Z,1385.00
2023-04-12T00:22:55.940Z,1392.00
2023-04-12T00:23:56.269Z,1365.00
2023-04-12T00:24:55.962Z,1389.00
2023-04-12T00:25:55.966Z,1385.00
2023-04-12T00:26:56.081Z,1384.00
2023-04-12T00:27:55.986Z,1368.00
2023-04-12T00:28:56.143Z,1374.00
2023-04-12T00:29:55.986Z,1375.00
2023-04-12T00:30:56.038Z,1403.00
2023-04-12T00:31:56.045Z,1362.00
2023-04-12T00:32:56.044Z,1379.00
2023-04-12T00:33:56.297Z,1371.00
2023-04-12T00:34:56.032Z,1375.00
2023-04-12T00:35:56.046Z,1358.00
2023-04-12T00:36:56.044Z,1357.00
2023-04-12T00:37:56.090Z,1386.00
2023-04-12T00:38:56.041Z,1397.00
2023-04-12T00:39:56.048Z,1356.00
2023-04-12T00:40:56.102Z,1336.00
2023-04-12T00:41:56.057Z,1366.00
2023-04-12T00:42:56.043Z,1336.00
2023-04-12T00:43:56.578Z,1359.00
2023-04-12T00:44:56.094Z,1359.00
2023-04-12T00:45:56.102Z,1363.00
2023-04-12T00:46:56.117Z,1352.00
2023-04-12T00:47:56.203Z,1333.00
2023-04-12T00:48:56.126Z,1344.00
2023-04-12T00:49:56.121Z,1348.00
2023-04-12T00:50:56.097Z,1342.00
2023-04-12T00:51:56.118Z,1331.00
2023-04-12T00:52:56.121Z,1358.00
2023-04-12T00:53:56.211Z,1353.00
2023-04-12T00:54:56.207Z,1359.00
2023-04-12T00:55:56.154Z,1355.00
2023-04-12T00:56:56.136Z,1357.00
2023-04-12T00:57:56.177Z,1342.00
2023-04-12T00:58:56.159Z,1369.00
2023-04-12T00:59:56.143Z,1360.00
2023-04-12T01:00:56.193Z,1312.00
2023-04-12T01:01:56.249Z,1318.00
2023-04-12T01:02:56.384Z,1326.00
2023-04-12T01:03:56.430Z,1352.00
2023-04-12T01:04:56.182Z,1376.00
2023-04-12T01:05:56.192Z,1303.00
2023-04-12T01:06:56.227Z,1356.00
2023-04-12T01:07:56.253Z,1297.00
2023-04-12T01:08:56.215Z,1303.00
2023-04-12T01:09:56.273Z,1320.00
2023-04-12T01:10:56.293Z,1292.00
2023-04-12T01:11:56.266Z,1318.00
2023-04-12T01:12:56.265Z,1310.00
2023-04-12T01:13:56.518Z,1350.00
2023-04-12T01:14:56.329Z,1313.00
2023-04-12T01:15:56.356Z,1342.00
2023-04-12T01:16:56.299Z,1296.00
2023-04-12T01:17:56.337Z,1322.00
2023-04-12T01:18:56.314Z,1304.00
2023-04-12T01:19:56.335Z,1325.00
2023-04-12T01:20:56.342Z,1307.00
2023-04-12T01:21:56.330Z,1324.00
2023-04-12T01:22:56.363Z,1309.00
2023-04-12T01:23:56.553Z,1294.00
2023-04-12T01:24:56.401Z,1289.00
2023-04-12T01:25:56.411Z,1299.00
2023-04-12T01:26:56.410Z,1281.00
2023-04-12T01:27:56.445Z,1312.00
2023-04-12T01:28:56.396Z,1289.00
2023-04-12T01:29:56.428Z,1271.00
2023-04-12T01:30:56.448Z,1288.00
2023-04-12T01:31:56.560Z,1276.00
2023-04-12T01:32:56.512Z,1287.00
2023-04-12T01:33:56.759Z,1275.00
2023-04-12T01:34:56.486Z,1290.00
2023-04-12T01:35:56.560Z,1266.00
2023-04-12T01:36:56.535Z,1280.00
2023-04-12T01:37:56.525Z,1309.00
2023-04-12T01:38:56.573Z,1276.00
2023-04-12T01:39:56.581Z,1295.00
2023-04-12T01:40:56.613Z,1258.00
2023-04-12T01:41:56.631Z,1299.00
2023-04-12T01:42:56.616Z,1269.00
2023-04-12T01:43:56.854Z,1292.00
2023-04-12T01:44:56.639Z,1285.00
2023-04-12T01:45:56.680Z,1280.00
2023-04-12T01:46:56.668Z,1257.00
2023-04-12T01:47:56.805Z,1253.00
2023-04-12T01:48:56.698Z,1251.00
2023-04-12T01:49:56.727Z,1268.00
2023-04-12T01:50:56.733Z,1271.00
2023-04-12T01:51:56.770Z,1267.00
2023-04-12T01:52:56.743Z,1244.00
2023-04-12T01:53:57.077Z,1231.00
2023-04-12T01:54:56.757Z,1298.00
2023-04-12T01:55:56.795Z,1244.00
2023-04-12T01:56:56.842Z,1259.00
2023-04-12T01:57:56.791Z,1262.00
2023-04-12T01:58:56.845Z,1301.00
2023-04-12T01:59:56.848Z,1274.00
2023-04-12T02:00:56.852Z,1249.00
2023-04-12T02:01:56.919Z,1222.00
2023-04-12T02:02:57.006Z,1252.00
2023-04-12T02:03:57.171Z,1247.00
2023-04-12T02:04:56.849Z,1257.00
2023-04-12T02:05:56.877Z,1258.00
2023-04-12T02:06:56.891Z,1217.00
2023-04-12T02:07:56.924Z,1254.00
2023-04-12T02:08:56.912Z,1232.00
2023-04-12T02:09:56.946Z,1241.00
2023-04-12T02:10:56.943Z,1254.00
2023-04-12T02:11:57.006Z,1255.00
2023-04-12T02:12:56.975Z,1232.00
2023-04-12T02:13:57.264Z,1251.00
2023-04-12T02:14:56.983Z,1251.00
2023-04-12T02:15:56.984Z,1224.00
2023-04-12T02:16:57.064Z,1219.00
2023-04-12T02:17:57.026Z,1222.00
2023-04-12T02:18:57.000Z,1207.00
2023-04-12T02:19:57.008Z,1227.00
2023-04-12T02:20:57.044Z,1234.00
2023-04-12T02:21:57.049Z,1236.00
2023-04-12T02:22:57.085Z,1208.00
2023-04-12T02:23:57.208Z,1233.00
2023-04-12T02:24:57.224Z,1202.00
2023-04-12T02:25:57.093Z,1239.00
2023-04-12T02:26:57.131Z,1211.00
2023-04-12T02:27:57.134Z,1217.00
2023-04-12T02:28:57.145Z,1198.00
2023-04-12T02:29:57.145Z,1202.00
2023-04-12T02:30:57.197Z,1195.00
2023-04-12T02:31:57.169Z,1219.00
2023-04-12T02:32:57.162Z,1229.00
2023-04-12T02:33:57.386Z,1196.00
2023-04-12T02:34:57.181Z,1211.00
2023-04-12T02:35:57.309Z,1197.00
2023-04-12T02:36:57.157Z,1171.00
2023-04-12T02:37:57.212Z,1219.00
2023-04-12T02:38:57.208Z,1235.00
2023-04-12T02:39:57.225Z,1185.00
2023-04-12T02:40:57.232Z,1222.00
2023-04-12T02:41:57.225Z,1176.00
2023-04-12T02:42:57.331Z,1174.00
2023-04-12T02:43:57.584Z,1206.00
2023-04-12T02:44:57.261Z,1185.00
2023-04-12T02:45:57.361Z,1207.00
2023-04-12T02:46:57.301Z,1182.00
2023-04-12T02:47:57.323Z,1197.00
2023-04-12T02:48:57.441Z,1210.00
2023-04-12T02:49:57.399Z,1193.00
2023-04-12T02:50:57.364Z,1167.00
2023-04-12T02:51:57.329Z,1193.00
2023-04-12T02:52:57.404Z,1203.00
2023-04-12T02:53:57.588Z,1193.00
2023-04-12T02:54:57.426Z,1170.00
2023-04-12T02:55:57.414Z,1178.00
2023-04-12T02:56:57.434Z,1166.00
2023-04-12T02:57:57.471Z,1186.00
2023-04-12T02:58:57.487Z,1142.00
2023-04-12T02:59:57.487Z,1189.00
2023-04-12T03:00:57.559Z,1208.00
2023-04-12T03:01:57.667Z,1182.00
2023-04-12T03:02:57.597Z,1188.00
2023-04-12T03:03:57.800Z,1153.00
2023-04-12T03:04:57.624Z,1176.00
2023-04-12T03:05:57.630Z,1121.00
2023-04-12T03:06:57.601Z,1146.00
2023-04-12T03:07:57.610Z,1166.00
2023-04-12T03:08:57.643Z,1172.00
2023-04-12T03:09:57.622Z,1183.00
2023-04-12T03:10:57.701Z,1159.00
2023-04-12T03:11:57.708Z,1156.00
2023-04-12T03:12:57.676Z,1152.00
2023-04-12T03:13:57.923Z,1159.00
2023-04-12T03:14:57.760Z,1167.00
2023-04-12T03:15:57.851Z,1138.00
2023-04-12T03:16:57.740Z,1146.00
2023-04-12T03:17:57.800Z,1192.00
2023-04-12T03:18:57.833Z,1126.00
2023-04-12T03:19:57.794Z,1159.00
2023-04-12T03:20:57.862Z,1132.00
2023-04-12T03:21:57.845Z,1155.00
2023-04-12T03:22:57.810Z,1156.00
2023-04-12T03:23:58.249Z,1156.00
2023-04-12T03:24:57.833Z,1185.00
2023-04-12T03:25:57.940Z,1156.00
2023-04-12T03:26:57.917Z,1157.00
2023-04-12T03:27:57.903Z,1170.00
2023-04-12T03:28:57.890Z,1128.00
2023-04-12T03:29:58.024Z,1116.00
2023-04-12T03:30:57.998Z,1152.00
2023-04-12T03:31:58.019Z,1140.00
2023-04-12T03:32:58.029Z,1132.00
2023-04-12T03:33:58.192Z,1122.00
2023-04-12T03:34:58.027Z,1119.00
2023-04-12T03:35:58.096Z,1117.00
2023-04-12T03:36:58.260Z,1104.00
2023-04-12T03:37:58.050Z,1128.00
2023-04-12T03:38:58.099Z,1116.00
2023-04-12T03:39:58.071Z,1098.00
2023-04-12T03:40:58.142Z,1136.00
2023-04-12T03:41:58.139Z,1112.00
2023-04-12T03:43:00.005Z,1130.00
2023-04-12T03:43:58.330Z,1156.00
2023-04-12T03:44:58.196Z,1139.00
2023-04-12T03:45:58.180Z,1117.00
2023-04-12T03:46:58.129Z,1125.00
2023-04-12T03:47:58.157Z,1125.00
2023-04-12T03:48:58.158Z,1098.00
2023-04-12T03:50:11.172Z,1103.00
2023-04-12T03:50:59.097Z,1104.00
2023-04-12T03:51:58.150Z,1107.00
2023-04-12T03:52:58.181Z,1116.00
2023-04-12T03:53:58.369Z,1121.00
2023-04-12T03:54:58.089Z,1101.00
2023-04-12T03:55:58.053Z,1122.00
2023-04-12T03:56:58.170Z,1102.00
2023-04-12T03:57:58.076Z,1126.00
2023-04-12T03:58:58.015Z,1093.00
2023-04-12T03:59:58.072Z,1101.00
2023-04-12T04:00:58.080Z,1086.00
2023-04-12T04:01:58.160Z,1063.00
2023-04-12T04:02:58.131Z,1092.00
2023-04-12T04:03:58.406Z,1045.00
2023-04-12T04:04:58.052Z,1080.00
2023-04-12T04:05:58.009Z,1024.00
2023-04-12T04:06:58.082Z,978.00
2023-04-12T04:07:58.070Z,1020.00
2023-04-12T04:08:57.973Z,977.00
2023-04-12T04:09:58.027Z,951.00
2023-04-12T04:10:58.047Z,949.00
2023-04-12T04:11:57.944Z,985.00
2023-04-12T04:12:58.047Z,967.00
2023-04-12T04:13:58.193Z,966.00
2023-04-12T04:14:57.915Z,964.00
2023-04-12T04:15:58.005Z,920.00
2023-04-12T04:16:57.924Z,914.00
2023-04-12T04:17:57.923Z,884.00
2023-04-12T04:18:57.924Z,907.00
2023-04-12T04:19:57.938Z,880.00
2023-04-12T04:20:57.999Z,872.00
2023-04-12T04:21:58.560Z,886.00
2023-04-12T04:22:57.962Z,836.00
2023-04-12T04:23:58.405Z,846.00
2023-04-12T04:24:58.073Z,832.00
2023-04-12T04:25:58.041Z,831.00
2023-04-12T04:26:58.054Z,831.00
2023-04-12T04:27:58.130Z,846.00
2023-04-12T04:28:58.051Z,842.00
2023-04-12T04:29:58.179Z,820.00
2023-04-12T04:30:58.142Z,791.00
2023-04-12T04:31:58.190Z,794.00
2023-04-12T04:32:58.290Z,838.00
2023-04-12T04:33:58.327Z,817.00
2023-04-12T04:34:58.159Z,838.00
2023-04-12T04:35:58.209Z,811.00
2023-04-12T04:36:58.191Z,864.00
2023-04-12T04:37:58.226Z,816.00
2023-04-12T04:38:58.277Z,852.00
2023-04-12T04:39:58.287Z,860.00
2023-04-12T04:40:58.301Z,856.00
2023-04-12T04:41:58.299Z,848.00
2023-04-12T04:42:58.312Z,879.00
2023-04-12T04:43:58.551Z,889.00
2023-04-12T04:44:58.376Z,871.00
2023-04-12T04:45:58.388Z,890.00
2023-04-12T04:46:58.394Z,879.00
2023-04-12T04:47:58.426Z,845.00
2023-04-12T04:48:58.403Z,881.00
2023-04-12T04:49:58.408Z,855.00
2023-04-12T04:50:58.496Z,873.00
2023-04-12T04:51:58.471Z,868.00
2023-04-12T04:52:58.429Z,866.00
2023-04-12T04:53:58.728Z,852.00
2023-04-12T04:54:58.486Z,889.00
2023-04-12T04:55:58.496Z,901.00
2023-04-12T04:56:58.564Z,868.00
2023-04-12T04:57:58.669Z,875.00
2023-04-12T04:58:58.788Z,874.00
2023-04-12T04:59:58.623Z,880.00
2023-04-12T05:00:58.588Z,895.00
2023-04-12T05:01:58.574Z,868.00
2023-04-12T05:02:58.726Z,879.00
2023-04-12T05:03:58.710Z,863.00
2023-04-12T05:04:58.645Z,895.00
2023-04-12T05:05:58.679Z,883.00
2023-04-12T05:06:58.670Z,852.00
2023-04-12T05:07:58.682Z,882.00
2023-04-12T05:08:59.495Z,886.00
2023-04-12T05:09:58.793Z,886.00
2023-04-12T05:10:58.700Z,888.00
2023-04-12T05:11:58.760Z,851.00
2023-04-12T05:12:58.769Z,863.00
2023-04-12T05:13:58.876Z,882.00
2023-04-12T05:15:11.129Z,872.00
2023-04-12T05:15:59.809Z,873.00
2023-04-12T05:16:58.858Z,873.00
2023-04-12T05:17:58.823Z,881.00
2023-04-12T05:18:59.017Z,890.00
2023-04-12T05:19:58.768Z,882.00
2023-04-12T05:20:58.836Z,889.00
2023-04-12T05:21:58.781Z,870.00
2023-04-12T05:22:58.849Z,888.00
2023-04-12T05:23:58.753Z,881.00
2023-04-12T05:24:58.763Z,886.00
2023-04-12T05:25:58.870Z,875.00
2023-04-12T05:26:58.675Z,886.00
2023-04-12T05:27:58.708Z,894.00
2023-04-12T05:28:58.879Z,908.00
2023-04-12T05:29:58.673Z,901.00
2023-04-12T05:30:58.844Z,927.00
2023-04-12T05:31:58.905Z,920.00
2023-04-12T05:32:58.749Z,874.00
2023-04-12T05:33:58.701Z,882.00
2023-04-12T05:34:58.672Z,873.00
2023-04-12T05:35:58.666Z,860.00
2023-04-12T05:36:58.765Z,883.00
2023-04-12T05:37:58.774Z,880.00
2023-04-12T05:38:58.889Z,887.00
2023-04-12T05:39:58.763Z,906.00
2023-04-12T05:40:58.849Z,890.00
2023-04-12T05:41:58.910Z,909.00
2023-04-12T05:42:58.913Z,888.00
2023-04-12T05:43:58.981Z,863.00
2023-04-12T05:44:59.003Z,895.00
2023-04-12T05:45:59.061Z,903.00
2023-04-12T05:46:59.107Z,911.00
2023-04-12T05:47:59.161Z,928.00
2023-04-12T05:48:59.253Z,886.00
2023-04-12T05:49:59.184Z,890.00
2023-04-12T05:50:59.226Z,885.00
2023-04-12T05:51:59.323Z,899.00
2023-04-12T05:52:59.446Z,848.00
2023-04-12T05:53:59.359Z,856.00
2023-04-12T05:54:59.464Z,863.00
2023-04-12T05:55:59.531Z,892.00
2023-04-12T05:56:59.551Z,851.00
2023-04-12T05:57:59.512Z,869.00
2023-04-12T05:58:59.516Z,883.00
2023-04-12T05:59:59.678Z,896.00
2023-04-12T06:00:59.622Z,927.00
2023-04-12T06:01:59.700Z,889.00
2023-04-12T06:02:59.695Z,902.00
2023-04-12T06:03:59.838Z,909.00
2023-04-12T06:04:59.835Z,887.00
2023-04-12T06:05:59.712Z,877.00
2023-04-12T06:07:00.106Z,903.00
2023-04-12T06:07:59.824Z,894.00
2023-04-12T06:08:59.766Z,885.00
2023-04-12T06:09:59.708Z,880.00
2023-04-12T06:10:59.883Z,893.00
2023-04-12T06:11:59.794Z,915.00
2023-04-12T06:12:59.902Z,867.00
2023-04-12T06:13:59.851Z,881.00
2023-04-12T06:14:59.817Z,892.00
2023-04-12T06:15:59.835Z,900.00
2023-04-12T06:16:59.830Z,879.00
2023-04-12T06:18:00.768Z,877.00
2023-04-12T06:19:00.119Z,894.00
2023-04-12T06:19:59.943Z,907.00
2023-04-12T06:20:59.831Z,894.00
2023-04-12T06:21:59.960Z,894.00
2023-04-12T06:23:00.043Z,883.00
2023-04-12T06:23:59.977Z,891.00
2023-04-12T06:24:59.845Z,917.00
2023-04-12T06:25:59.983Z,887.00
2023-04-12T06:26:59.873Z,888.00
2023-04-12T06:27:59.814Z,891.00
2023-04-12T06:28:59.857Z,836.00
2023-04-12T06:29:59.835Z,835.00
2023-04-12T06:30:59.893Z,837.00
2023-04-12T06:31:59.823Z,789.00
2023-04-12T06:32:59.893Z,817.00
2023-04-12T06:33:59.870Z,779.00
2023-04-12T06:34:59.937Z,782.00
2023-04-12T06:35:59.912Z,807.00
2023-04-12T06:36:59.958Z,839.00
2023-04-12T06:37:59.841Z,835.00
2023-04-12T06:38:59.802Z,835.00
2023-04-12T06:39:59.868Z,861.00
2023-04-12T06:40:59.965Z,883.00
2023-04-12T06:41:59.814Z,894.00
2023-04-12T06:42:59.814Z,921.00
2023-04-12T06:43:59.972Z,916.00
2023-04-12T06:44:59.902Z,932.00
2023-04-12T06:46:00.240Z,943.00
2023-04-12T06:46:59.957Z,958.00
2023-04-12T06:48:00.138Z,960.00
2023-04-12T06:49:00.278Z,925.00
2023-04-12T06:50:00.034Z,915.00
2023-04-12T06:50:59.963Z,933.00
2023-04-12T06:51:59.943Z,899.00
2023-04-12T06:52:59.964Z,912.00
2023-04-12T06:54:00.090Z,903.00
2023-04-12T06:54:59.992Z,874.00
2023-04-12T06:55:59.903Z,881.00
2023-04-12T06:56:59.896Z,851.00
2023-04-12T06:57:59.927Z,905.00
2023-04-12T06:59:00.348Z,870.00
2023-04-12T07:00:00.034Z,854.00
2023-04-12T07:01:00.061Z,855.00
2023-04-12T07:02:00.213Z,839.00
2023-04-12T07:03:00.275Z,852.00
2023-04-12T07:04:00.101Z,874.00
2023-04-12T07:05:00.147Z,862.00
2023-04-12T07:07:00.270Z,885.00
2023-04-12T07:08:00.162Z,884.00
2023-04-12T07:09:00.323Z,870.00
2023-04-12T07:10:00.281Z,862.00
2023-04-12T07:11:06.079Z,862.00
2023-04-12T07:12:01.202Z,863.00
2023-04-12T07:13:00.224Z,863.00
2023-04-12T07:14:00.203Z,849.00
2023-04-12T07:15:00.204Z,831.00
2023-04-12T07:16:00.261Z,819.00
2023-04-12T07:17:00.176Z,847.00
2023-04-12T07:18:00.282Z,807.00
2023-04-12T07:19:00.549Z,818.00
2023-04-12T07:20:00.263Z,804.00
2023-04-12T07:21:00.281Z,783.00
2023-04-12T07:22:00.373Z,803.00
2023-04-12T07:23:00.370Z,819.00
2023-04-12T07:24:00.468Z,804.00
2023-04-12T07:25:00.505Z,791.00
2023-04-12T07:26:00.537Z,820.00
2023-04-12T07:27:00.550Z,864.00
2023-04-12T07:28:00.599Z,879.00
2023-04-12T07:29:00.628Z,855.00
2023-04-12T07:30:00.633Z,833.00
2023-04-12T07:31:00.736Z,912.00
2023-04-12T07:32:00.849Z,939.00
2023-04-12T07:33:12.454Z,898.00
2023-04-12T07:34:01.829Z,901.00
2023-04-12T07:35:00.779Z,913.00
2023-04-12T07:36:00.796Z,945.00
2023-04-12T07:37:00.780Z,980.00
2023-04-12T07:38:00.785Z,1034.00
2023-04-12T07:39:00.797Z,1059.00
2023-04-12T07:40:00.769Z,1039.00
2023-04-12T07:41:00.743Z,964.00
2023-04-12T07:42:00.762Z,970.00
2023-04-12T07:43:00.735Z,955.00
2023-04-12T07:44:00.731Z,961.00
2023-04-12T07:45:00.742Z,904.00
2023-04-12T07:46:00.764Z,878.00
2023-04-12T07:47:00.842Z,900.00
2023-04-12T07:48:01.133Z,846.00
2023-04-12T07:49:01.004Z,843.00
2023-04-12T07:50:01.065Z,865.00
2023-04-12T07:51:01.120Z,797.00
2023-04-12T07:52:01.186Z,771.00
2023-04-12T07:53:01.295Z,847.00
2023-04-12T07:54:01.297Z,834.00
2023-04-12T07:55:01.241Z,790.00
2023-04-12T07:56:01.293Z,772.00
2023-04-12T07:57:01.363Z,749.00
2023-04-12T07:58:01.403Z,703.00
2023-04-12T07:59:01.466Z,751.00
2023-04-12T08:00:01.489Z,737.00
2023-04-12T08:01:01.623Z,697.00
2023-04-12T08:02:01.678Z,682.00
2023-04-12T08:03:01.894Z,661.00
2023-04-12T08:04:02.284Z,648.00
2023-04-12T08:05:01.782Z,708.00
2023-04-12T08:06:01.810Z,787.00
2023-04-12T08:07:01.699Z,749.00
2023-04-12T08:08:01.769Z,769.00
2023-04-12T08:09:01.910Z,810.00
2023-04-12T08:10:01.879Z,846.00
2023-04-12T08:11:01.931Z,824.00
2023-04-12T08:12:01.967Z,672.00
2023-04-12T08:13:01.966Z,649.00
2023-04-12T08:14:01.975Z,619.00
2023-04-12T08:15:02.002Z,612.00
2023-04-12T08:16:02.101Z,608.00
2023-04-12T08:17:02.060Z,595.00
2023-04-12T08:18:02.142Z,570.00
2023-04-12T08:19:02.335Z,574.00
2023-04-12T08:20:02.258Z,567.00
2023-04-12T08:21:02.228Z,559.00
2023-04-12T08:22:02.232Z,562.00
2023-04-12T08:23:02.228Z,563.00
2023-04-12T08:24:02.320Z,561.00
2023-04-12T08:25:02.293Z,549.00
2023-04-12T08:26:02.670Z,560.00
2023-04-12T08:27:02.336Z,557.00
2023-04-12T08:28:02.337Z,599.00
2023-04-12T08:29:02.367Z,632.00
2023-04-12T08:30:02.383Z,611.00
2023-04-12T08:31:02.630Z,596.00
2023-04-12T08:32:02.445Z,579.00
2023-04-12T08:33:02.558Z,570.00
2023-04-12T08:34:02.434Z,563.00
2023-04-12T08:35:02.494Z,631.00
2023-04-12T08:36:02.652Z,671.00
2023-04-12T08:37:02.623Z,696.00
2023-04-12T08:38:02.630Z,588.00
2023-04-12T08:39:02.632Z,552.00
2023-04-12T08:40:02.648Z,567.00
2023-04-12T08:41:02.686Z,607.00
2023-04-12T08:42:02.765Z,604.00
2023-04-12T08:43:02.755Z,639.00
2023-04-12T08:44:02.861Z,724.00
2023-04-12T08:45:02.920Z,808.00
2023-04-12T08:46:03.050Z,823.00
2023-04-12T08:47:03.196Z,808.00
2023-04-12T08:48:03.117Z,830.00
2023-04-12T08:49:03.172Z,877.00
2023-04-12T08:50:03.224Z,893.00
2023-04-12T08:51:03.270Z,858.00
2023-04-12T08:52:03.324Z,727.00
2023-04-12T08:53:03.390Z,665.00
2023-04-12T08:54:03.387Z,783.00
2023-04-12T08:55:03.517Z,772.00
2023-04-12T08:56:03.505Z,764.00
2023-04-12T08:57:03.587Z,796.00
2023-04-12T08:58:03.581Z,769.00
2023-04-12T08:59:03.685Z,799.00
2023-04-12T09:00:03.729Z,808.00
2023-04-12T09:01:03.753Z,734.00
2023-04-12T09:02:03.965Z,725.00
2023-04-12T09:03:04.040Z,758.00
2023-04-12T09:04:04.375Z,761.00
2023-04-12T09:05:04.036Z,769.00
2023-04-12T09:06:03.994Z,830.00
2023-04-12T09:07:04.099Z,833.00
2023-04-12T09:08:04.176Z,791.00
2023-04-12T09:09:06.216Z,760.00
2023-04-12T09:10:04.187Z,759.00
2023-04-12T09:11:05.146Z,684.00
2023-04-12T09:12:04.119Z,700.00
2023-04-12T09:13:04.137Z,720.00
2023-04-12T09:14:04.217Z,733.00
2023-04-12T09:15:04.114Z,731.00
2023-04-12T09:16:04.116Z,699.00
2023-04-12T09:17:04.214Z,660.00
2023-04-12T09:18:04.096Z,642.00
2023-04-12T09:19:04.150Z,655.00
2023-04-12T09:20:04.077Z,654.00
2023-04-12T09:21:04.107Z,647.00
2023-04-12T09:22:04.052Z,641.00
2023-04-12T09:23:04.060Z,632.00
2023-04-12T09:24:04.060Z,627.00
2023-04-12T09:25:04.074Z,655.00
2023-04-12T09:26:04.081Z,643.00
2023-04-12T09:27:04.037Z,648.00
2023-04-12T09:28:04.031Z,643.00
2023-04-12T09:29:04.039Z,653.00
2023-04-12T09:30:04.028Z,628.00
2023-04-12T09:31:04.092Z,654.00
2023-04-12T09:32:04.078Z,685.00
2023-04-12T09:33:04.027Z,661.00
2023-04-12T09:34:03.959Z,661.00
2023-04-12T09:35:04.206Z,660.00
2023-04-12T09:36:04.017Z,629.00
2023-04-12T09:37:03.937Z,612.00
2023-04-12T09:38:03.953Z,632.00
2023-04-12T09:39:03.970Z,633.00
2023-04-12T09:40:05.069Z,635.00
2023-04-12T09:41:03.926Z,640.00
2023-04-12T09:42:04.024Z,616.00
2023-04-12T09:43:04.031Z,560.00
2023-04-12T09:44:03.975Z,504.00
2023-04-12T09:45:04.005Z,526.00
2023-04-12T09:46:04.101Z,511.00
2023-04-12T09:47:04.153Z,515.00
2023-04-12T09:48:04.115Z,511.00
2023-04-12T09:49:04.227Z,521.00
2023-04-12T09:50:04.194Z,526.00
2023-04-12T09:51:04.190Z,527.00
2023-04-12T09:52:04.184Z,505.00
2023-04-12T09:53:04.310Z,527.00
2023-04-12T09:54:05.884Z,487.00
2023-04-12T09:55:04.321Z,500.00
2023-04-12T09:56:04.314Z,534.00
2023-04-12T09:57:04.404Z,524.00
2023-04-12T09:58:04.404Z,542.00
2023-04-12T09:59:04.464Z,531.00
2023-04-12T10:00:04.450Z,568.00
2023-04-12T10:01:04.622Z,582.00
2023-04-12T10:02:04.559Z,575.00
2023-04-12T10:03:04.704Z,571.00
2023-04-12T10:04:05.157Z,536.00
2023-04-12T10:05:04.696Z,569.00
2023-04-12T10:06:04.681Z,553.00
2023-04-12T10:07:04.678Z,552.00
2023-04-12T10:08:04.715Z,540.00
2023-04-12T10:09:04.775Z,567.00
2023-04-12T10:10:04.716Z,551.00
2023-04-12T10:11:04.809Z,506.00
2023-04-12T10:12:04.785Z,521.00
2023-04-12T10:13:04.821Z,554.00
2023-04-12T10:14:04.955Z,553.00
2023-04-12T10:15:04.896Z,572.00
2023-04-12T10:16:04.955Z,586.00
2023-04-12T10:17:04.945Z,508.00
2023-04-12T10:18:04.988Z,528.00
2023-04-12T10:19:05.010Z,562.00
2023-04-12T10:20:05.044Z,523.00
2023-04-12T10:21:05.085Z,555.00
2023-04-12T10:22:05.070Z,533.00
2023-04-12T10:23:05.092Z,556.00
2023-04-12T10:24:05.209Z,549.00
2023-04-12T10:25:05.211Z,535.00
2023-04-12T10:26:05.235Z,564.00
2023-04-12T10:27:06.238Z,580.00
2023-04-12T10:28:05.317Z,577.00
2023-04-12T10:29:05.276Z,560.00
2023-04-12T10:30:05.329Z,563.00
2023-04-12T10:31:05.398Z,563.00
2023-04-12T10:32:05.543Z,538.00
2023-04-12T10:33:05.623Z,559.00
2023-04-12T10:34:05.454Z,579.00
2023-04-12T10:35:05.651Z,567.00
2023-04-12T10:36:05.575Z,531.00
2023-04-12T10:37:05.603Z,511.00
2023-04-12T10:38:05.573Z,524.00
2023-04-12T10:39:05.710Z,522.00
2023-04-12T10:40:05.621Z,526.00
2023-04-12T10:41:05.762Z,545.00
2023-04-12T10:42:05.675Z,549.00
2023-04-12T10:43:05.780Z,542.00
2023-04-12T10:44:05.807Z,522.00
2023-04-12T10:45:05.806Z,506.00
2023-04-12T10:46:05.895Z,501.00
2023-04-12T10:47:05.946Z,485.00
2023-04-12T10:48:05.931Z,502.00
2023-04-12T10:49:05.921Z,504.00
2023-04-12T10:50:05.982Z,506.00
2023-04-12T10:51:06.056Z,525.00
2023-04-12T10:52:06.049Z,551.00
2023-04-12T10:53:06.160Z,539.00
2023-04-12T10:54:06.128Z,487.00
2023-04-12T10:55:06.134Z,501.00
2023-04-12T10:56:06.176Z,498.00
2023-04-12T10:57:06.291Z,508.00
2023-04-12T10:58:07.575Z,520.00
2023-04-12T10:59:08.203Z,540.00
2023-04-12T11:00:06.355Z,569.00
2023-04-12T11:01:06.463Z,570.00
2023-04-12T11:02:06.472Z,559.00
2023-04-12T11:03:06.748Z,551.00
2023-04-12T11:04:06.702Z,537.00
2023-04-12T11:05:06.594Z,546.00
2023-04-12T11:06:19.929Z,542.00
2023-04-12T11:07:07.553Z,536.00
2023-04-12T11:08:06.605Z,543.00
2023-04-12T11:09:06.512Z,549.00
2023-04-12T11:10:06.527Z,559.00
2023-04-12T11:11:06.554Z,568.00
2023-04-12T11:12:08.190Z,605.00
2023-04-12T11:13:06.478Z,606.00
2023-04-12T11:14:06.501Z,613.00
2023-04-12T11:15:06.473Z,626.00
2023-04-12T11:16:06.482Z,653.00
2023-04-12T11:17:06.560Z,689.00
2023-04-12T11:18:06.845Z,686.00
2023-04-12T11:19:06.529Z,704.00
2023-04-12T11:20:06.420Z,706.00
2023-04-12T11:21:06.503Z,690.00
2023-04-12T11:22:06.417Z,647.00
2023-04-12T11:23:07.193Z,660.00
2023-04-12T11:24:06.439Z,658.00
2023-04-12T11:25:06.353Z,660.00
2023-04-12T11:26:06.420Z,690.00
2023-04-12T11:27:06.386Z,697.00
2023-04-12T11:28:17.253Z,697.00
2023-04-12T11:29:07.340Z,696.00
2023-04-12T11:30:06.359Z,697.00
2023-04-12T11:31:06.398Z,701.00
2023-04-12T11:32:06.563Z,688.00
2023-04-12T11:33:06.479Z,669.00
2023-04-12T11:34:06.313Z,674.00
2023-04-12T11:35:06.330Z,674.00
2023-04-12T11:36:06.283Z,669.00
2023-04-12T11:37:06.417Z,647.00
2023-04-12T11:38:06.304Z,623.00
2023-04-12T11:39:06.310Z,616.00
2023-04-12T11:40:06.313Z,637.00
2023-04-12T11:41:06.262Z,630.00
2023-04-12T11:42:06.280Z,627.00
2023-04-12T11:43:06.487Z,615.00
2023-04-12T11:44:06.377Z,643.00
2023-04-12T11:46:06.418Z,638.00
2023-04-12T11:47:06.397Z,646.00
2023-04-12T11:48:06.519Z,640.00
2023-04-12T11:49:06.432Z,673.00
2023-04-12T11:50:06.483Z,671.00
2023-04-12T11:51:11.508Z,661.00
2023-04-12T11:52:07.527Z,637.00
2023-04-12T11:53:06.529Z,636.00
2023-04-12T11:54:06.542Z,625.00
2023-04-12T11:55:06.636Z,640.00
2023-04-12T11:56:06.476Z,630.00
2023-04-12T11:57:06.482Z,667.00
2023-04-12T11:58:06.453Z,674.00
2023-04-12T11:59:06.451Z,659.00
2023-04-12T12:00:06.799Z,648.00
2023-04-12T12:01:06.463Z,684.00
2023-04-12T12:02:21.504Z,735.00
2023-04-12T12:03:08.485Z,736.00
2023-04-12T12:04:06.841Z,699.00
2023-04-12T12:05:06.882Z,732.00
2023-04-12T12:06:06.700Z,631.00
2023-04-12T12:07:06.865Z,616.00
2023-04-12T12:08:06.542Z,587.00
2023-04-12T12:09:06.619Z,591.00
2023-04-12T12:10:06.535Z,724.00
2023-04-12T12:11:08.718Z,762.00
2023-04-12T12:12:06.651Z,775.00
2023-04-12T12:13:06.642Z,769.00
2023-04-12T12:14:06.666Z,776.00
2023-04-12T12:15:06.694Z,769.00
2023-04-12T12:16:06.895Z,786.00
2023-04-12T12:17:06.682Z,808.00
2023-04-12T12:18:06.732Z,805.00
2023-04-12T12:19:06.714Z,816.00
2023-04-12T12:20:06.752Z,826.00
2023-04-12T12:21:06.745Z,844.00
2023-04-12T12:22:06.798Z,772.00
2023-04-12T12:23:06.811Z,716.00